createdAt,value
2018-07-01T00:00:46.789Z,71.30
2018-07-01T00:03:15.068Z,71.20
2018-07-01T00:05:43.297Z,71.10
2018-07-01T00:08:11.525Z,70.80
2018-07-01T00:10:39.711Z,71.20
2018-07-01T00:13:08.081Z,71.60
2018-07-01T00:15:36.343Z,71.40
2018-07-01T00:18:04.643Z,70.90
2018-07-01T00:20:32.977Z,71.00
2018-07-01T00:23:01.171Z,71.30
2018-07-01T00:25:29.400Z,71.10
2018-07-01T00:27:57.620Z,71.40
2018-07-01T00:30:25.824Z,71.60
2018-07-01T00:32:54.110Z,72.70
2018-07-01T00:35:22.285Z,72.20
2018-07-01T00:37:50.541Z,71.90
2018-07-01T00:40:18.781Z,72.00
2018-07-01T00:42:46.963Z,71.60
2018-07-01T00:45:15.194Z,71.60
2018-07-01T00:47:43.399Z,71.30
2018-07-01T00:50:11.661Z,71.50
2018-07-01T00:52:39.895Z,71.70
2018-07-01T00:55:08.122Z,71.40
2018-07-01T00:57:36.344Z,71.50
2018-07-01T01:00:05.513Z,71.70
2018-07-01T01:02:33.745Z,71.20
2018-07-01T01:05:02.026Z,71.80
2018-07-01T01:07:30.264Z,72.20
2018-07-01T01:09:58.485Z,72.10
2018-07-01T01:12:26.720Z,71.50
2018-07-01T01:14:54.956Z,72.20
2018-07-01T01:17:23.309Z,71.80
2018-07-01T01:19:51.493Z,72.10
2018-07-01T01:22:19.697Z,72.50
2018-07-01T01:24:47.993Z,72.10
2018-07-01T01:27:16.220Z,72.40
2018-07-01T01:29:44.426Z,72.90
2018-07-01T01:32:12.766Z,72.80
2018-07-01T01:34:41.104Z,73.90
2018-07-01T01:37:09.397Z,73.50
2018-07-01T01:39:39.896Z,74.20
2018-07-01T01:43:13.417Z,73.40
2018-07-01T01:45:49.806Z,73.90
2018-07-01T01:48:23.089Z,73.50
2018-07-01T01:50:58.869Z,74.40
2018-07-01T01:54:03.909Z,74.20
2018-07-01T01:56:39.266Z,74.20
2018-07-01T01:59:12.690Z,74.40
2018-07-01T02:01:44.852Z,74.00
2018-07-01T02:04:17.638Z,74.10
2018-07-01T02:06:52.510Z,74.60
2018-07-01T02:09:23.962Z,74.70
2018-07-01T02:11:53.486Z,74.60
2018-07-01T02:14:34.990Z,75.10
2018-07-01T02:17:05.523Z,74.60
2018-07-01T02:19:33.873Z,75.40
2018-07-01T02:22:04.079Z,76.20
2018-07-01T02:24:36.116Z,75.00
2018-07-01T02:27:04.609Z,75.60
2018-07-01T02:29:32.961Z,75.00
2018-07-01T02:32:01.341Z,75.40
2018-07-01T02:34:29.609Z,75.20
2018-07-01T02:36:57.810Z,74.80
2018-07-01T02:39:26.025Z,74.30
2018-07-01T02:41:54.282Z,74.70
2018-07-01T02:44:22.574Z,75.00
2018-07-01T02:46:50.802Z,75.10
2018-07-01T02:49:18.985Z,75.00
2018-07-01T02:51:47.240Z,75.30
2018-07-01T02:54:15.477Z,74.70
2018-07-01T02:56:43.693Z,75.10
2018-07-01T02:59:11.953Z,75.60
2018-07-01T03:01:40.134Z,75.50
2018-07-01T03:04:08.395Z,75.50
2018-07-01T03:06:36.702Z,76.10
2018-07-01T03:09:09.508Z,75.60
2018-07-01T03:11:37.746Z,75.60
2018-07-01T03:14:06.126Z,76.20
2018-07-01T03:16:34.360Z,75.70
2018-07-01T03:19:02.834Z,76.40
2018-07-01T03:21:31.129Z,76.40
2018-07-01T03:23:59.430Z,76.30
2018-07-01T03:26:27.722Z,76.20
2018-07-01T03:28:56.009Z,77.70
2018-07-01T03:31:24.230Z,76.20
2018-07-01T03:33:52.536Z,76.30
2018-07-01T03:36:20.823Z,76.60
2018-07-01T03:38:48.990Z,76.50
2018-07-01T03:41:17.217Z,76.70
2018-07-01T03:43:45.461Z,76.70
2018-07-01T03:46:13.677Z,76.90
2018-07-01T03:48:41.906Z,76.20
2018-07-01T03:51:10.097Z,76.30
2018-07-01T03:53:38.335Z,76.80
2018-07-01T03:56:06.525Z,76.60
2018-07-01T03:58:34.813Z,77.30
2018-07-01T04:01:03.117Z,76.70
2018-07-01T04:03:31.360Z,77.50
2018-07-01T04:05:59.605Z,77.50
2018-07-01T04:08:27.823Z,77.10
2018-07-01T04:10:56.058Z,77.10
2018-07-01T04:13:24.357Z,77.70
2018-07-01T04:15:52.628Z,77.40
2018-07-01T04:18:20.861Z,77.40
2018-07-01T04:20:49.051Z,77.20
2018-07-01T04:23:17.321Z,77.50
2018-07-01T04:25:45.585Z,78.00
2018-07-01T04:28:13.782Z,77.50
2018-07-01T04:30:42.026Z,77.60
2018-07-01T04:33:10.245Z,77.40
2018-07-01T04:35:38.488Z,76.80
2018-07-01T04:38:06.732Z,78.00
2018-07-01T04:40:35.026Z,77.30
2018-07-01T04:43:03.326Z,77.60
2018-07-01T04:45:31.522Z,77.20
2018-07-01T04:47:59.754Z,77.70
2018-07-01T04:50:27.993Z,76.90
2018-07-01T04:52:56.158Z,76.70
2018-07-01T04:55:24.495Z,77.20
2018-07-01T04:57:52.645Z,76.30
2018-07-01T05:00:20.907Z,76.60
2018-07-01T05:02:49.138Z,77.00
2018-07-01T05:05:17.326Z,76.50
2018-07-01T05:07:45.524Z,75.80
2018-07-01T05:10:13.705Z,76.80
2018-07-01T05:12:41.937Z,76.20
2018-07-01T05:15:10.175Z,74.70
2018-07-01T05:17:38.377Z,74.80
2018-07-01T05:20:06.593Z,74.10
2018-07-01T05:22:34.784Z,73.80
2018-07-01T05:25:03.020Z,73.80
2018-07-01T05:27:31.256Z,72.10
2018-07-01T05:29:59.457Z,71.50
2018-07-01T05:32:27.746Z,70.90
2018-07-01T05:34:56.032Z,69.60
2018-07-01T05:37:24.259Z,69.60
2018-07-01T05:39:52.464Z,69.90
2018-07-01T05:42:20.657Z,68.00
2018-07-01T05:44:49.327Z,66.80
2018-07-01T05:47:17.530Z,67.60
2018-07-01T05:49:45.868Z,67.00
2018-07-01T05:52:14.097Z,66.70
2018-07-01T05:54:42.506Z,66.80
2018-07-01T05:57:10.931Z,64.80
2018-07-01T05:59:40.375Z,66.10
2018-07-01T06:02:08.733Z,64.80
2018-07-01T06:04:36.973Z,64.90
2018-07-01T06:07:05.589Z,64.10
2018-07-01T06:09:33.805Z,64.30
2018-07-01T06:12:02.021Z,64.90
2018-07-01T06:14:30.249Z,63.30
2018-07-01T06:16:58.538Z,63.10
2018-07-01T06:19:26.831Z,63.30
2018-07-01T06:21:55.070Z,64.00
2018-07-01T06:24:23.249Z,62.80
2018-07-01T06:26:51.470Z,61.00
2018-07-01T06:29:19.737Z,60.70
2018-07-01T06:31:47.956Z,60.30
2018-07-01T06:34:16.234Z,60.60
2018-07-01T06:36:44.502Z,59.70
2018-07-01T06:39:12.837Z,60.70
2018-07-01T06:41:41.064Z,60.10
2018-07-01T06:44:09.286Z,61.40
2018-07-01T06:46:37.512Z,61.60
2018-07-01T06:49:05.991Z,60.70
2018-07-01T06:51:34.254Z,59.30
2018-07-01T06:54:02.513Z,58.90
2018-07-01T06:56:30.725Z,59.00
2018-07-01T06:58:58.949Z,59.60
2018-07-01T07:01:27.306Z,58.70
2018-07-01T07:03:55.533Z,59.20
2018-07-01T07:06:23.918Z,58.20
2018-07-01T07:08:52.227Z,57.50
2018-07-01T07:11:20.513Z,59.60
2018-07-01T07:13:48.730Z,58.70
2018-07-01T07:16:17.047Z,57.10
2018-07-01T07:18:45.305Z,58.90
2018-07-01T07:21:13.552Z,59.20
2018-07-01T07:23:41.786Z,58.60
2018-07-01T07:26:09.982Z,59.00
2018-07-01T07:28:38.203Z,58.40
2018-07-01T07:31:06.625Z,59.00
2018-07-01T07:33:34.904Z,57.80
2018-07-01T07:36:03.173Z,59.90
2018-07-01T07:38:31.381Z,60.20
2018-07-01T07:40:59.688Z,59.00
2018-07-01T07:43:27.925Z,59.20
2018-07-01T07:48:24.253Z,58.80
2018-07-01T07:50:52.552Z,59.50
2018-07-01T07:53:21.045Z,58.60
2018-07-01T07:55:49.482Z,59.60
2018-07-01T07:58:17.830Z,59.40
2018-07-01T08:00:46.124Z,60.10
2018-07-01T08:05:42.305Z,58.50
2018-07-01T08:08:10.577Z,58.60
2018-07-01T08:10:38.951Z,57.80
2018-07-01T08:13:07.284Z,57.90
2018-07-01T08:15:35.521Z,58.60
2018-07-01T08:18:03.818Z,58.10
2018-07-01T08:20:32.061Z,58.10
2018-07-01T08:23:00.282Z,57.50
2018-07-01T08:25:28.545Z,57.20
2018-07-01T08:27:56.818Z,56.60
2018-07-01T08:30:25.118Z,57.20
2018-07-01T08:32:53.373Z,58.40
2018-07-01T08:35:21.634Z,58.60
